createdAt,value
2022-09-17T00:16:02.267Z,69.50
2022-09-17T00:30:53.810Z,68.60
2022-09-17T00:45:44.376Z,68.38
2022-09-17T01:00:35.631Z,70.69
2022-09-17T01:15:32.099Z,71.12
2022-09-17T01:30:35.521Z,73.03
2022-09-17T01:45:30.287Z,72.75
2022-09-17T02:00:21.998Z,72.61
2022-09-17T02:15:12.191Z,75.07
2022-09-17T02:30:03.329Z,77.70
2022-09-17T02:45:13.942Z,78.41
2022-09-17T03:00:26.753Z,78.48
2022-09-17T03:15:17.363Z,78.35
2022-09-17T03:30:09.192Z,78.95
2022-09-17T04:00:20.119Z,79.10
2022-09-17T04:15:10.072Z,78.09
2022-09-17T04:44:52.046Z,76.13
2022-09-17T04:59:43.238Z,76.74
2022-09-17T05:14:33.952Z,75.79
2022-09-17T05:44:18.076Z,77.28
2022-09-17T06:13:58.209Z,84.17
2022-09-17T06:28:48.636Z,85.68
2022-09-17T06:43:39.583Z,85.41
2022-09-17T06:58:31.032Z,86.13
2022-09-17T07:13:23.065Z,86.33
2022-09-17T07:28:14.165Z,83.53
2022-09-17T07:43:06.105Z,82.70
2022-09-17T07:57:58.662Z,82.35
2022-09-17T08:12:55.419Z,79.64
2022-09-17T08:27:50.694Z,77.17
2022-09-17T08:42:42.142Z,74.37
2022-09-17T08:57:51.381Z,70.75
2022-09-17T09:12:48.435Z,70.71
2022-09-17T09:27:42.436Z,68.28
2022-09-17T09:42:37.010Z,67.34
2022-09-17T09:57:34.162Z,67.45
2022-09-17T10:12:30.256Z,64.86
2022-09-17T10:27:21.092Z,63.49
2022-09-17T10:42:12.395Z,62.44
2022-09-17T10:57:04.327Z,59.31
2022-09-17T11:12:13.420Z,61.68
2022-09-17T11:27:15.663Z,59.17
2022-09-17T11:42:12.183Z,56.40
2022-09-17T12:12:48.351Z,62.56
2022-09-17T12:27:14.541Z,85.37
2022-09-17T12:42:05.765Z,87.75
2022-09-17T12:57:19.406Z,86.07
2022-09-17T13:12:30.956Z,84.42
2022-09-17T13:27:29.218Z,83.45
2022-09-17T13:42:30.687Z,74.79
2022-09-17T13:57:27.613Z,61.02
2022-09-17T14:12:52.992Z,59.64
2022-09-17T14:43:04.285Z,57.72
2022-09-17T14:57:56.765Z,57.36
2022-09-17T15:12:51.520Z,58.20
2022-09-17T15:27:41.633Z,61.25
2022-09-17T15:42:34.118Z,59.92
2022-09-17T15:57:25.690Z,61.23
2022-09-17T16:12:18.683Z,64.48
2022-09-17T16:27:10.431Z,74.65
2022-09-17T16:42:01.948Z,79.33
2022-09-17T16:56:52.811Z,81.37
2022-09-17T17:11:44.967Z,82.06
2022-09-17T17:26:36.350Z,83.54
2022-09-17T17:56:32.889Z,85.72
2022-09-17T18:11:25.020Z,84.71
2022-09-17T18:26:18.197Z,81.88
2022-09-17T18:41:09.329Z,91.45
2022-09-17T18:56:02.742Z,95.03
2022-09-17T19:10:55.797Z,97.34
2022-09-17T19:25:46.788Z,99.04
2022-09-17T19:40:37.990Z,100.00
2022-09-17T19:55:28.934Z,99.21
2022-09-17T20:10:21.027Z,97.98
2022-09-17T20:25:14.344Z,96.50
2022-09-17T20:40:25.279Z,96.37
2022-09-17T20:55:16.711Z,94.53
2022-09-17T21:10:08.502Z,93.76
2022-09-17T21:24:59.741Z,91.87
2022-09-17T21:39:50.767Z,92.11
2022-09-17T21:54:41.738Z,91.63
2022-09-17T22:09:33.131Z,90.60
2022-09-17T22:24:25.066Z,90.09
2022-09-17T22:39:16.035Z,90.22
2022-09-17T22:54:08.250Z,90.33
2022-09-17T23:08:59.713Z,90.16
2022-09-17T23:23:50.781Z,89.80
2022-09-17T23:38:41.643Z,87.39
2022-09-17T23:53:32.422Z,87.70
